sensor_id;sensor_type;location;lat;lon;timestamp;pressure;altitude;pressure_sealevel;temperature;humidity
61474;BME280;53694;49.784;30.150;2022-07-29T00:00:16;100086.54;;;16.20;68.07
61474;BME280;53694;49.784;30.150;2022-07-29T00:01:18;100077.80;;;16.11;68.28
61474;BME280;53694;49.784;30.150;2022-07-29T00:02:19;100078.94;;;16.03;68.79
61474;BME280;53694;49.784;30.150;2022-07-29T00:03:21;100082.47;;;15.99;69.33
61474;BME280;53694;49.784;30.150;2022-07-29T00:04:23;100072.94;;;15.97;69.69
61474;BME280;53694;49.784;30.150;2022-07-29T00:05:25;100080.46;;;15.96;70.08
61474;BME280;53694;49.784;30.150;2022-07-29T00:06:27;100080.88;;;15.98;70.36
61474;BME280;53694;49.784;30.150;2022-07-29T00:07:28;100078.51;;;16.00;70.40
61474;BME280;53694;49.784;30.150;2022-07-29T00:08:30;100075.81;;;16.11;70.53
61474;BME280;53694;49.784;30.150;2022-07-29T00:09:32;100077.91;;;16.39;69.75
61474;BME280;53694;49.784;30.150;2022-07-29T00:10:34;100076.88;;;16.76;67.98
61474;BME280;53694;49.784;30.150;2022-07-29T00:11:35;100082.50;;;17.19;67.06
61474;BME280;53694;49.784;30.150;2022-07-29T00:12:37;100083.31;;;17.55;65.43
61474;BME280;53694;49.784;30.150;2022-07-29T00:13:39;100074.95;;;17.73;64.36
61474;BME280;53694;49.784;30.150;2022-07-29T00:14:40;100084.49;;;17.79;64.41
61474;BME280;53694;49.784;30.150;2022-07-29T00:15:42;100077.36;;;17.74;64.16
61474;BME280;53694;49.784;30.150;2022-07-29T00:16:44;100078.94;;;17.68;64.49
61474;BME280;53694;49.784;30.150;2022-07-29T00:17:45;100077.35;;;17.60;64.58
61474;BME280;53694;49.784;30.150;2022-07-29T00:18:47;100077.34;;;17.49;64.62
61474;BME280;53694;49.784;30.150;2022-07-29T00:19:49;100079.35;;;17.38;64.69
61474;BME280;53694;49.784;30.150;2022-07-29T00:20:51;100076.18;;;17.29;64.51
61474;BME280;53694;49.784;30.150;2022-07-29T00:21:52;100078.55;;;17.16;65.20
61474;BME280;53694;49.784;30.150;2022-07-29T00:22:55;100078.52;;;17.06;65.63
61474;BME280;53694;49.784;30.150;2022-07-29T00:23:57;100082.09;;;16.95;65.98
61474;BME280;53694;49.784;30.150;2022-07-29T00:24:59;100076.09;;;16.86;66.15
61474;BME280;53694;49.784;30.150;2022-07-29T00:26:00;100086.41;;;16.79;66.17
61474;BME280;53694;49.784;30.150;2022-07-29T00:27:02;100082.78;;;16.71;66.11
61474;BME280;53694;49.784;30.150;2022-07-29T00:28:04;100085.14;;;16.62;66.01
61474;BME280;53694;49.784;30.150;2022-07-29T00:29:05;100075.98;;;16.50;66.45
61474;BME280;53694;49.784;30.150;2022-07-29T00:30:08;100078.33;;;16.41;66.53
61474;BME280;53694;49.784;30.150;2022-07-29T00:31:10;100086.58;;;16.31;66.86
61474;BME280;53694;49.784;30.150;2022-07-29T00:32:12;100081.00;;;16.20;67.32
61474;BME280;53694;49.784;30.150;2022-07-29T00:33:13;100082.94;;;16.12;67.66
61474;BME280;53694;49.784;30.150;2022-07-29T00:34:15;100088.42;;;16.05;67.82
61474;BME280;53694;49.784;30.150;2022-07-29T00:35:17;100082.47;;;15.99;68.02
61474;BME280;53694;49.784;30.150;2022-07-29T00:36:19;100086.40;;;15.95;68.54
61474;BME280;53694;49.784;30.150;2022-07-29T00:37:21;100080.83;;;15.91;68.49
61474;BME280;53694;49.784;30.150;2022-07-29T00:38:22;100084.77;;;15.87;68.52
61474;BME280;53694;49.784;30.150;2022-07-29T00:39:24;100084.73;;;15.83;69.00
61474;BME280;53694;49.784;30.150;2022-07-29T00:40:27;100081.58;;;15.81;69.12
61474;BME280;53694;49.784;30.150;2022-07-29T00:41:29;100079.98;;;15.80;69.17
61474;BME280;53694;49.784;30.150;2022-07-29T00:42:54;100079.56;;;15.78;68.84
61474;BME280;53694;49.784;30.150;2022-07-29T00:43:36;100078.34;;;15.75;68.73
61474;BME280;53694;49.784;30.150;2022-07-29T00:44:39;100078.35;;;15.72;68.93
61474;BME280;53694;49.784;30.150;2022-07-29T00:45:41;100076.73;;;15.67;69.07
61474;BME280;53694;49.784;30.150;2022-07-29T00:46:43;100077.50;;;15.64;69.32
61474;BME280;53694;49.784;30.150;2022-07-29T00:47:45;100077.05;;;15.62;69.41
61474;BME280;53694;49.784;30.150;2022-07-29T00:48:47;100078.63;;;15.60;69.55
61474;BME280;53694;49.784;30.150;2022-07-29T00:49:48;100078.20;;;15.58;69.42
61474;BME280;53694;49.784;30.150;2022-07-29T00:50:50;100082.55;;;15.55;69.56
61474;BME280;53694;49.784;30.150;2022-07-29T00:51:53;100075.80;;;15.53;69.91
61474;BME280;53694;49.784;30.150;2022-07-29T00:52:55;100073.03;;;15.53;70.01
61474;BME280;53694;49.784;30.150;2022-07-29T00:53:56;100076.98;;;15.52;69.80
61474;BME280;53694;49.784;30.150;2022-07-29T00:54:58;100075.40;;;15.50;69.86
61474;BME280;53694;49.784;30.150;2022-07-29T00:56:00;100067.92;;;15.58;70.08
61474;BME280;53694;49.784;30.150;2022-07-29T00:57:02;100075.98;;;15.74;69.61
61474;BME280;53694;49.784;30.150;2022-07-29T00:58:03;100072.89;;;15.86;69.15
61474;BME280;53694;49.784;30.150;2022-07-29T00:59:05;100070.63;;;16.03;69.13
61474;BME280;53694;49.784;30.150;2022-07-29T01:00:10;100068.33;;;16.22;68.62
61474;BME280;53694;49.784;30.150;2022-07-29T01:01:12;100064.05;;;16.36;67.79
61474;BME280;53694;49.784;30.150;2022-07-29T01:02:14;100060.50;;;16.42;67.21
61474;BME280;53694;49.784;30.150;2022-07-29T01:03:16;100064.47;;;16.41;67.06
61474;BME280;53694;49.784;30.150;2022-07-29T01:04:17;100064.86;;;16.40;67.22
61474;BME280;53694;49.784;30.150;2022-07-29T01:05:21;100066.01;;;16.35;67.35
61474;BME280;53694;49.784;30.150;2022-07-29T01:06:26;100064.41;;;16.31;67.12
61474;BME280;53694;49.784;30.150;2022-07-29T01:07:30;100065.19;;;16.24;67.52
61474;BME280;53694;49.784;30.150;2022-07-29T01:08:32;100065.93;;;16.17;67.61
61474;BME280;53694;49.784;30.150;2022-07-29T01:09:35;100068.29;;;16.12;67.71
61474;BME280;53694;49.784;30.150;2022-07-29T01:10:39;100064.31;;;16.06;68.04
61474;BME280;53694;49.784;30.150;2022-07-29T01:11:43;100067.83;;;15.99;68.10
61474;BME280;53694;49.784;30.150;2022-07-29T01:12:48;100061.84;;;15.90;67.95
61474;BME280;53694;49.784;30.150;2022-07-29T01:13:51;100064.16;;;15.81;68.07
61474;BME280;53694;49.784;30.150;2022-07-29T01:14:54;100064.51;;;15.72;68.22
61474;BME280;53694;49.784;30.150;2022-07-29T01:15:59;100054.95;;;15.66;68.42
61474;BME280;53694;49.784;30.150;2022-07-29T01:18:42;100049.70;;;15.54;68.89
61474;BME280;53694;49.784;30.150;2022-07-29T01:22:54;100060.64;;;15.36;69.64
61474;BME280;53694;49.784;30.150;2022-07-29T01:24:22;100057.44;;;15.30;70.03
61474;BME280;53694;49.784;30.150;2022-07-29T01:26:59;100063.70;;;15.23;70.16
61474;BME280;53694;49.784;30.150;2022-07-29T01:30:29;100054.06;;;16.17;68.30
61474;BME280;53694;49.784;30.150;2022-07-29T01:32:59;100053.56;;;17.13;64.53
61474;BME280;53694;49.784;30.150;2022-07-29T01:34:04;100051.17;;;17.36;63.94
61474;BME280;53694;49.784;30.150;2022-07-29T01:36:19;100054.77;;;17.33;63.59
61474;BME280;53694;49.784;30.150;2022-07-29T01:37:39;100053.55;;;17.20;63.27
61474;BME280;53694;49.784;30.150;2022-07-29T01:38:40;100059.88;;;17.03;63.77
61474;BME280;53694;49.784;30.150;2022-07-29T01:39:44;100050.73;;;16.81;64.15
61474;BME280;53694;49.784;30.150;2022-07-29T01:40:49;100054.63;;;16.62;64.43
61474;BME280;53694;49.784;30.150;2022-07-29T01:42:19;100048.62;;;16.42;64.87
61474;BME280;53694;49.784;30.150;2022-07-29T01:43:19;100058.85;;;16.23;65.33
61474;BME280;53694;49.784;30.150;2022-07-29T01:44:40;100060.33;;;16.03;66.49
61474;BME280;53694;49.784;30.150;2022-07-29T01:46:00;100059.86;;;15.90;66.74
61474;BME280;53694;49.784;30.150;2022-07-29T01:47:10;100064.51;;;15.72;67.24
61474;BME280;53694;49.784;30.150;2022-07-29T01:49:20;100061.56;;;15.50;68.53
61474;BME280;53694;49.784;30.150;2022-07-29T01:50:27;100057.55;;;15.44;68.92
61474;BME280;53694;49.784;30.150;2022-07-29T01:51:33;100059.48;;;15.40;69.14
61474;BME280;53694;49.784;30.150;2022-07-29T01:54:10;100059.81;;;15.32;69.23
61474;BME280;53694;49.784;30.150;2022-07-29T01:55:11;100060.97;;;15.27;69.51
61474;BME280;53694;49.784;30.150;2022-07-29T01:56:16;100058.13;;;15.20;69.58
61474;BME280;53694;49.784;30.150;2022-07-29T01:57:21;100058.08;;;15.13;69.85
61474;BME280;53694;49.784;30.150;2022-07-29T01:58:24;100058.40;;;15.04;70.03
61474;BME280;53694;49.784;30.150;2022-07-29T01:59:29;100057.10;;;14.94;70.32
61474;BME280;53694;49.784;30.150;2022-07-29T02:00:32;100064.16;;;14.88;70.55
61474;BME280;53694;49.784;30.150;2022-07-29T02:01:36;100062.98;;;14.89;70.64
61474;BME280;53694;49.784;30.150;2022-07-29T02:02:41;100058.01;;;15.06;70.27
61474;BME280;53694;49.784;30.150;2022-07-29T02:03:45;100066.56;;;15.34;69.44
61474;BME280;53694;49.784;30.150;2022-07-29T02:04:47;100058.55;;;15.70;68.23
61474;BME280;53694;49.784;30.150;2022-07-29T02:05:51;100058.39;;;16.11;67.14
61474;BME280;53694;49.784;30.150;2022-07-29T02:07:00;100056.54;;;16.43;65.98
61474;BME280;53694;49.784;30.150;2022-07-29T02:08:04;100062.53;;;16.60;65.20
61474;BME280;53694;49.784;30.150;2022-07-29T02:09:08;100056.20;;;16.59;64.71
61474;BME280;53694;49.784;30.150;2022-07-29T02:10:12;100055.77;;;16.46;64.42
61474;BME280;53694;49.784;30.150;2022-07-29T02:11:14;100065.58;;;16.26;64.69
61474;BME280;53694;49.784;30.150;2022-07-29T02:12:17;100058.75;;;16.02;65.27
61474;BME280;53694;49.784;30.150;2022-07-29T02:13:20;100064.53;;;15.79;66.39
61474;BME280;53694;49.784;30.150;2022-07-29T02:14:24;100067.95;;;15.62;67.47
61474;BME280;53694;49.784;30.150;2022-07-29T02:15:30;100062.32;;;15.47;68.38
61474;BME280;53694;49.784;30.150;2022-07-29T02:16:33;100072.50;;;15.36;69.00
61474;BME280;53694;49.784;30.150;2022-07-29T02:17:45;100064.91;;;15.26;69.12
61474;BME280;53694;49.784;30.150;2022-07-29T02:18:50;100062.83;;;15.16;69.37
61474;BME280;53694;49.784;30.150;2022-07-29T02:19:55;100063.93;;;15.04;69.56
61474;BME280;53694;49.784;30.150;2022-07-29T02:20:58;100061.84;;;14.94;70.16
61474;BME280;53694;49.784;30.150;2022-07-29T02:22:01;100073.21;;;14.85;70.55
61474;BME280;53694;49.784;30.150;2022-07-29T02:23:04;100073.56;;;14.80;70.85
61474;BME280;53694;49.784;30.150;2022-07-29T02:24:06;100071.20;;;14.82;70.98
61474;BME280;53694;49.784;30.150;2022-07-29T02:25:10;100069.03;;;15.02;71.12
61474;BME280;53694;49.784;30.150;2022-07-29T02:26:17;100070.52;;;15.37;70.03
61474;BME280;53694;49.784;30.150;2022-07-29T02:27:20;100070.50;;;15.81;69.14
61474;BME280;53694;49.784;30.150;2022-07-29T02:28:24;100070.35;;;16.29;67.41
61474;BME280;53694;49.784;30.150;2022-07-29T02:29:28;100070.13;;;16.73;65.67
61474;BME280;53694;49.784;30.150;2022-07-29T02:30:32;100073.77;;;17.10;64.15
61474;BME280;53694;49.784;30.150;2022-07-29T02:31:35;100076.97;;;17.26;62.99
61474;BME280;53694;49.784;30.150;2022-07-29T02:32:39;100074.56;;;17.24;62.84
61474;BME280;53694;49.784;30.150;2022-07-29T02:33:43;100074.56;;;17.10;63.16
61474;BME280;53694;49.784;30.150;2022-07-29T02:34:46;100078.09;;;16.89;64.06
61474;BME280;53694;49.784;30.150;2022-07-29T02:35:49;100069.69;;;16.68;64.88
61474;BME280;53694;49.784;30.150;2022-07-29T02:36:52;100074.78;;;16.44;65.63
61474;BME280;53694;49.784;30.150;2022-07-29T02:37:56;100070.73;;;16.24;66.16
61474;BME280;53694;49.784;30.150;2022-07-29T02:38:58;100073.78;;;16.05;66.88
61474;BME280;53694;49.784;30.150;2022-07-29T02:40:01;100073.29;;;15.88;67.50
61474;BME280;53694;49.784;30.150;2022-07-29T02:41:06;100072.81;;;15.75;68.17
61474;BME280;53694;49.784;30.150;2022-07-29T02:42:11;100075.06;;;15.63;68.71
61474;BME280;53694;49.784;30.150;2022-07-29T02:43:14;100078.17;;;15.50;69.35
61474;BME280;53694;49.784;30.150;2022-07-29T02:44:19;100075.69;;;15.38;69.44
61474;BME280;53694;49.784;30.150;2022-07-29T02:45:21;100072.43;;;15.29;69.70
61474;BME280;53694;49.784;30.150;2022-07-29T02:46:29;100070.80;;;15.21;70.09
61474;BME280;53694;49.784;30.150;2022-07-29T02:47:43;100065.91;;;15.07;70.39
61474;BME280;53694;49.784;30.150;2022-07-29T02:48:55;100071.84;;;15.06;70.71
61474;BME280;53694;49.784;30.150;2022-07-29T02:49:58;100073.06;;;15.12;71.17
61474;BME280;53694;49.784;30.150;2022-07-29T02:51:07;100079.66;;;15.41;70.32
61474;BME280;53694;49.784;30.150;2022-07-29T02:52:21;100071.69;;;15.80;69.30
61474;BME280;53694;49.784;30.150;2022-07-29T02:53:25;100073.91;;;16.30;68.09
61474;BME280;53694;49.784;30.150;2022-07-29T02:55:40;100066.66;;;17.12;64.68
61474;BME280;53694;49.784;30.150;2022-07-29T02:56:40;100076.56;;;17.28;64.13
61474;BME280;53694;49.784;30.150;2022-07-29T02:59:00;100063.87;;;17.12;63.61
61474;BME280;53694;49.784;30.150;2022-07-29T03:00:07;100064.63;;;16.88;64.06
61474;BME280;53694;49.784;30.150;2022-07-29T03:01:20;100065.74;;;16.65;64.74
61474;BME280;53694;49.784;30.150;2022-07-29T03:02:20;100068.81;;;16.42;65.37
61474;BME280;53694;49.784;30.150;2022-07-29T03:03:25;100075.45;;;16.20;65.97
61474;BME280;53694;49.784;30.150;2022-07-29T03:04:28;100076.92;;;15.99;66.53
61474;BME280;53694;49.784;30.150;2022-07-29T03:05:32;100085.89;;;15.79;67.14
61474;BME280;53694;49.784;30.150;2022-07-29T03:06:35;100081.39;;;15.60;67.74
61474;BME280;53694;49.784;30.150;2022-07-29T03:07:40;100081.63;;;15.40;68.30
61474;BME280;53694;49.784;30.150;2022-07-29T03:08:43;100079.50;;;15.23;68.84
61474;BME280;53694;49.784;30.150;2022-07-29T03:09:46;100089.66;;;15.08;69.36
61474;BME280;53694;49.784;30.150;2022-07-29T03:10:48;100084.76;;;14.94;69.90
61474;BME280;53694;49.784;30.150;2022-07-29T03:11:50;100087.78;;;14.82;70.29
61474;BME280;53694;49.784;30.150;2022-07-29T03:12:55;100087.30;;;14.73;70.74
61474;BME280;53694;49.784;30.150;2022-07-29T03:13:57;100090.36;;;14.64;71.12
61474;BME280;53694;49.784;30.150;2022-07-29T03:14:59;100086.06;;;14.67;71.30
61474;BME280;53694;49.784;30.150;2022-07-29T03:16:03;100090.98;;;14.84;71.05
61474;BME280;53694;49.784;30.150;2022-07-29T03:17:05;100085.39;;;15.18;70.16
61474;BME280;53694;49.784;30.150;2022-07-29T03:18:08;100089.27;;;15.58;69.07
61474;BME280;53694;49.784;30.150;2022-07-29T03:19:11;100087.63;;;16.05;68.10
61474;BME280;53694;49.784;30.150;2022-07-29T03:20:14;100081.94;;;16.53;66.55
61474;BME280;53694;49.784;30.150;2022-07-29T03:21:17;100083.27;;;16.91;65.18
61474;BME280;53694;49.784;30.150;2022-07-29T03:22:19;100083.68;;;17.11;64.27
61474;BME280;53694;49.784;30.150;2022-07-29T03:23:22;100078.92;;;17.11;64.01
61474;BME280;53694;49.784;30.150;2022-07-29T03:24:34;100087.63;;;17.03;64.12
61474;BME280;53694;49.784;30.150;2022-07-29T03:25:37;100084.05;;;16.88;64.68
61474;BME280;53694;49.784;30.150;2022-07-29T03:26:38;100087.54;;;16.70;65.08
61474;BME280;53694;49.784;30.150;2022-07-29T03:27:41;100087.87;;;16.55;65.41
61474;BME280;53694;49.784;30.150;2022-07-29T03:28:43;100086.64;;;16.41;66.03
61474;BME280;53694;49.784;30.150;2022-07-29T03:29:45;100088.95;;;16.29;66.35
61474;BME280;53694;49.784;30.150;2022-07-29T03:30:47;100086.52;;;16.16;66.84
61474;BME280;53694;49.784;30.150;2022-07-29T03:31:48;100087.27;;;16.06;67.26
61474;BME280;53694;49.784;30.150;2022-07-29T03:32:50;100087.98;;;15.96;67.75
61474;BME280;53694;49.784;30.150;2022-07-29T03:33:52;100088.33;;;15.87;68.17
61474;BME280;53694;49.784;30.150;2022-07-29T03:34:54;100083.91;;;15.79;68.49
61474;BME280;53694;49.784;30.150;2022-07-29T03:35:56;100087.05;;;15.74;68.93
61474;BME280;53694;49.784;30.150;2022-07-29T03:36:58;100094.14;;;15.68;69.21
61474;BME280;53694;49.784;30.150;2022-07-29T03:37:59;100092.50;;;15.63;69.48
61474;BME280;53694;49.784;30.150;2022-07-29T03:39:02;100084.53;;;15.58;69.65
61474;BME280;53694;49.784;30.150;2022-07-29T03:40:07;100090.03;;;15.55;69.89
61474;BME280;53694;49.784;30.150;2022-07-29T03:41:11;100095.56;;;15.51;70.24
61474;BME280;53694;49.784;30.150;2022-07-29T03:42:16;100086.84;;;15.49;70.47
61474;BME280;53694;49.784;30.150;2022-07-29T03:43:20;100094.34;;;15.48;70.58
61474;BME280;53694;49.784;30.150;2022-07-29T03:44:25;100093.23;;;15.57;70.55
61474;BME280;53694;49.784;30.150;2022-07-29T03:45:29;100092.23;;;15.79;70.58
61474;BME280;53694;49.784;30.150;2022-07-29T03:46:35;100090.89;;;16.21;69.96
61474;BME280;53694;49.784;30.150;2022-07-29T03:47:40;100086.75;;;16.70;68.29
61474;BME280;53694;49.784;30.150;2022-07-29T03:48:46;100088.05;;;17.19;66.49
61474;BME280;53694;49.784;30.150;2022-07-29T03:49:49;100088.47;;;17.60;65.22
61474;BME280;53694;49.784;30.150;2022-07-29T03:50:52;100087.68;;;17.78;64.38
61474;BME280;53694;49.784;30.150;2022-07-29T03:51:54;100100.37;;;17.82;64.03
61474;BME280;53694;49.784;30.150;2022-07-29T03:52:56;100095.63;;;17.76;64.08
61474;BME280;53694;49.784;30.150;2022-07-29T03:53:58;100089.66;;;17.63;64.26
61474;BME280;53694;49.784;30.150;2022-07-29T03:55:00;100087.28;;;17.47;64.67
61474;BME280;53694;49.784;30.150;2022-07-29T03:56:03;100094.01;;;17.32;65.25
61474;BME280;53694;49.784;30.150;2022-07-29T03:57:07;100093.22;;;17.17;65.77
61474;BME280;53694;49.784;30.150;2022-07-29T03:58:10;100091.59;;;17.02;66.30
61474;BME280;53694;49.784;30.150;2022-07-29T03:59:13;100094.73;;;16.89;66.81
61474;BME280;53694;49.784;30.150;2022-07-29T04:00:17;100094.71;;;16.75;67.35
61474;BME280;53694;49.784;30.150;2022-07-29T04:01:20;100094.62;;;16.61;68.01
61474;BME280;53694;49.784;30.150;2022-07-29T04:02:23;100093.80;;;16.49;68.48
61474;BME280;53694;49.784;30.150;2022-07-29T04:03:25;100096.94;;;16.41;68.92
61474;BME280;53694;49.784;30.150;2022-07-29T04:04:27;100090.56;;;16.33;69.31
61474;BME280;53694;49.784;30.150;2022-07-29T04:05:29;100103.22;;;16.27;69.62
61474;BME280;53694;49.784;30.150;2022-07-29T04:06:42;100098.02;;;16.22;69.97
61474;BME280;53694;49.784;30.150;2022-07-29T04:07:45;100098.39;;;16.17;70.23
61474;BME280;53694;49.784;30.150;2022-07-29T04:08:47;100094.80;;;16.13;70.47
61474;BME280;53694;49.784;30.150;2022-07-29T04:09:49;100094.41;;;16.11;70.71
61474;BME280;53694;49.784;30.150;2022-07-29T04:10:51;100088.89;;;16.18;70.77
61474;BME280;53694;49.784;30.150;2022-07-29T04:11:52;100096.14;;;16.40;70.40
61474;BME280;53694;49.784;30.150;2022-07-29T04:12:54;100089.55;;;16.77;69.46
61474;BME280;53694;49.784;30.150;2022-07-29T04:13:56;100086.86;;;17.20;68.24
61474;BME280;53694;49.784;30.150;2022-07-29T04:14:57;100092.82;;;17.65;66.94
61474;BME280;53694;49.784;30.150;2022-07-29T04:15:59;100095.97;;;18.03;65.69
61474;BME280;53694;49.784;30.150;2022-07-29T04:17:02;100092.34;;;18.23;64.76
61474;BME280;53694;49.784;30.150;2022-07-29T04:18:03;100092.34;;;18.27;64.27
61474;BME280;53694;49.784;30.150;2022-07-29T04:19:05;100094.72;;;18.21;64.27
61474;BME280;53694;49.784;30.150;2022-07-29T04:20:08;100088.00;;;18.12;64.46
61474;BME280;53694;49.784;30.150;2022-07-29T04:21:10;100103.52;;;17.98;64.87
61474;BME280;53694;49.784;30.150;2022-07-29T04:22:11;100102.36;;;17.85;65.35
61474;BME280;53694;49.784;30.150;2022-07-29T04:23:13;100107.50;;;17.72;65.85
61474;BME280;53694;49.784;30.150;2022-07-29T04:24:15;100087.67;;;17.60;66.41
61474;BME280;53694;49.784;30.150;2022-07-29T04:25:16;100099.97;;;17.48;66.92
61474;BME280;53694;49.784;30.150;2022-07-29T04:26:19;100103.92;;;17.36;67.35
61474;BME280;53694;49.784;30.150;2022-07-29T04:27:21;100103.52;;;17.27;67.31
61474;BME280;53694;49.784;30.150;2022-07-29T04:28:23;100111.45;;;17.18;67.61
61474;BME280;53694;49.784;30.150;2022-07-29T04:29:24;100110.64;;;17.10;67.83
61474;BME280;53694;49.784;30.150;2022-07-29T04:30:27;100104.29;;;17.06;68.29
61474;BME280;53694;49.784;30.150;2022-07-29T04:31:29;100104.69;;;17.05;68.51
61474;BME280;53694;49.784;30.150;2022-07-29T04:32:30;100107.05;;;17.03;68.58
61474;BME280;53694;49.784;30.150;2022-07-29T04:33:32;100106.67;;;17.04;68.68
61474;BME280;53694;49.784;30.150;2022-07-29T04:34:34;100105.88;;;17.04;68.56
61474;BME280;53694;49.784;30.150;2022-07-29T04:35:37;100105.06;;;17.03;68.65
61474;BME280;53694;49.784;30.150;2022-07-29T04:36:39;100092.02;;;17.04;68.69
61474;BME280;53694;49.784;30.150;2022-07-29T04:37:40;100099.94;;;17.05;68.75
61474;BME280;53694;49.784;30.150;2022-07-29T04:38:43;100095.17;;;17.06;69.07
61474;BME280;53694;49.784;30.150;2022-07-29T04:39:44;100099.16;;;17.08;68.84
61474;BME280;53694;49.784;30.150;2022-07-29T04:40:46;100089.23;;;17.11;68.78
61474;BME280;53694;49.784;30.150;2022-07-29T04:41:48;100088.45;;;17.14;68.72
61474;BME280;53694;49.784;30.150;2022-07-29T04:42:50;100092.81;;;17.18;68.53
61474;BME280;53694;49.784;30.150;2022-07-29T04:43:52;100082.91;;;17.21;68.21
61474;BME280;53694;49.784;30.150;2022-07-29T04:44:53;100086.86;;;17.23;67.97
61474;BME280;53694;49.784;30.150;2022-07-29T04:45:55;100079.73;;;17.26;67.72
61474;BME280;53694;49.784;30.150;2022-07-29T04:46:58;100090.06;;;17.29;68.36
61474;BME280;53694;49.784;30.150;2022-07-29T04:47:59;100084.48;;;17.33;68.45
61474;BME280;53694;49.784;30.150;2022-07-29T04:49:02;100085.28;;;17.37;68.15
61474;BME280;53694;49.784;30.150;2022-07-29T04:50:05;100086.86;;;17.41;68.13
61474;BME280;53694;49.784;30.150;2022-07-29T04:51:07;100086.08;;;17.44;68.07
61474;BME280;53694;49.784;30.150;2022-07-29T04:52:08;100086.88;;;17.48;67.32
61474;BME280;53694;49.784;30.150;2022-07-29T04:53:10;100085.30;;;17.51;66.63
61474;BME280;53694;49.784;30.150;2022-07-29T04:54:12;100092.44;;;17.56;66.08
61474;BME280;53694;49.784;30.150;2022-07-29T04:55:13;100088.05;;;17.62;65.97
61474;BME280;53694;49.784;30.150;2022-07-29T04:56:17;100088.05;;;17.62;65.97
61474;BME280;53694;49.784;30.150;2022-07-29T04:57:18;100097.17;;;17.66;65.01
61474;BME280;53694;49.784;30.150;2022-07-29T04:58:20;100091.63;;;17.69;64.77
61474;BME280;53694;49.784;30.150;2022-07-29T04:59:22;100089.26;;;17.75;64.79
61474;BME280;53694;49.784;30.150;2022-07-29T05:00:25;100086.10;;;17.80;64.57
61474;BME280;53694;49.784;30.150;2022-07-29T05:01:27;100081.71;;;17.86;64.26
61474;BME280;53694;49.784;30.150;2022-07-29T05:02:29;100087.64;;;17.92;64.20
61474;BME280;53694;49.784;30.150;2022-07-29T05:03:30;100090.04;;;17.97;64.04
61474;BME280;53694;49.784;30.150;2022-07-29T05:04:32;100084.86;;;18.03;63.19
61474;BME280;53694;49.784;30.150;2022-07-29T05:05:34;100084.44;;;18.08;62.58
61474;BME280;53694;49.784;30.150;2022-07-29T05:06:36;100082.85;;;18.14;62.48
61474;BME280;53694;49.784;30.150;2022-07-29T05:07:37;100085.59;;;18.21;62.31
61474;BME280;53694;49.784;30.150;2022-07-29T05:08:39;100086.73;;;18.34;61.93
61474;BME280;53694;49.784;30.150;2022-07-29T05:09:40;100086.73;;;18.34;61.93
61474;BME280;53694;49.784;30.150;2022-07-29T05:10:42;100086.72;;;18.41;62.13
61474;BME280;53694;49.784;30.150;2022-07-29T05:11:44;100091.84;;;18.50;63.16
61474;BME280;53694;49.784;30.150;2022-07-29T05:12:45;100089.41;;;18.59;62.65
61474;BME280;53694;49.784;30.150;2022-07-29T05:13:47;100086.19;;;18.75;64.17
61474;BME280;53694;49.784;30.150;2022-07-29T05:14:49;100086.19;;;18.75;64.17
61474;BME280;53694;49.784;30.150;2022-07-29T05:15:50;100084.55;;;18.81;64.13
61474;BME280;53694;49.784;30.150;2022-07-29T05:16:52;100094.87;;;18.84;63.82
61474;BME280;53694;49.784;30.150;2022-07-29T05:17:54;100084.94;;;18.87;63.92
61474;BME280;53694;49.784;30.150;2022-07-29T05:18:56;100091.66;;;18.89;64.52
61474;BME280;53694;49.784;30.150;2022-07-29T05:19:57;100092.06;;;18.91;63.98
61474;BME280;53694;49.784;30.150;2022-07-29T05:20:59;100095.99;;;18.95;63.97
61474;BME280;53694;49.784;30.150;2022-07-29T05:22:01;100095.99;;;18.97;63.60
61474;BME280;53694;49.784;30.150;2022-07-29T05:23:03;100088.02;;;19.03;64.53
61474;BME280;53694;49.784;30.150;2022-07-29T05:24:05;100093.16;;;19.08;63.83
61474;BME280;53694;49.784;30.150;2022-07-29T05:25:07;100081.18;;;19.11;63.12
61474;BME280;53694;49.784;30.150;2022-07-29T05:26:09;100094.27;;;19.18;62.89
61474;BME280;53694;49.784;30.150;2022-07-29T05:27:11;100093.05;;;19.22;62.83
61474;BME280;53694;49.784;30.150;2022-07-29T05:28:13;100085.03;;;19.28;62.10
61474;BME280;53694;49.784;30.150;2022-07-29T05:29:14;100086.62;;;19.33;61.83
61474;BME280;53694;49.784;30.150;2022-07-29T05:30:18;100091.75;;;19.38;61.96
61474;BME280;53694;49.784;30.150;2022-07-29T05:31:20;100086.16;;;19.41;61.21
61474;BME280;53694;49.784;30.150;2022-07-29T05:32:21;100086.91;;;19.45;60.97
61474;BME280;53694;49.784;30.150;2022-07-29T05:33:23;100089.64;;;19.49;60.06
61474;BME280;53694;49.784;30.150;2022-07-29T05:34:24;100091.62;;;19.52;60.10
61474;BME280;53694;49.784;30.150;2022-07-29T05:35:26;100084.81;;;19.57;60.51
61474;BME280;53694;49.784;30.150;2022-07-29T05:36:28;100088.39;;;19.61;60.06
61474;BME280;53694;49.784;30.150;2022-07-29T05:37:30;100093.52;;;19.66;58.52
61474;BME280;53694;49.784;30.150;2022-07-29T05:38:31;100086.70;;;19.70;58.28
61474;BME280;53694;49.784;30.150;2022-07-29T05:39:33;100089.42;;;19.78;57.15
61474;BME280;53694;49.784;30.150;2022-07-29T05:40:35;100086.19;;;19.83;57.68
61474;BME280;53694;49.784;30.150;2022-07-29T05:41:37;100087.34;;;19.89;57.61
61474;BME280;53694;49.784;30.150;2022-07-29T05:42:38;100085.67;;;19.95;56.44